Time;durP1;ratioP1;P1;durP2;ratioP2;P2;SDS_P1;SDS_P2;PMS_P1;PMS_P2;Temp;Humidity;BMP_temperature;BMP_pressure;BME280_temperature;BME280_humidity;BME280_pressure;Samples;Min_cycle;Max_cycle;Signal;HPM_P1;HPM_P2
2022/04/15 04:22:34;;;;;;;13.60;8.85;;;;;;;7.98;100.00;100947.13;5129545;27;20181;-72
2022/04/15 04:25:01;;;;;;;15.60;9.13;;;;;;;7.97;100.00;100944.59;5129764;28;20066;-72
2022/04/15 04:27:26;;;;;;;14.25;8.25;;;;;;;7.94;100.00;100944.88;5129723;28;20277;-72
2022/04/15 04:29:52;;;;;;;15.48;8.82;;;;;;;7.93;100.00;100953.81;5128438;28;20043;-73
2022/04/15 04:32:19;;;;;;;13.88;9.00;;;;;;;7.95;100.00;100952.69;5111205;28;20042;-73
2022/04/15 04:34:45;;;;;;;15.60;9.48;;;;;;;7.93;100.00;100961.78;5130165;28;20043;-73
2022/04/15 04:37:11;;;;;;;13.77;8.07;;;;;;;7.88;100.00;100949.75;5129703;27;20028;-72
2022/04/15 04:39:37;;;;;;;14.38;8.15;;;;;;;7.90;100.00;100960.25;5128385;28;20034;-73
2022/04/15 04:42:03;;;;;;;12.25;8.27;;;;;;;7.91;100.00;100969.03;5129107;28;20039;-72
2022/04/15 04:44:30;;;;;;;14.98;8.45;;;;;;;7.92;100.00;100968.06;5129359;28;20490;-72
2022/04/15 04:46:56;;;;;;;12.52;8.43;;;;;;;7.91;100.00;100963.72;5129462;28;20522;-72
2022/04/15 04:49:22;;;;;;;11.63;7.57;;;;;;;7.91;100.00;100966.38;5129399;28;20379;-73
2022/04/15 04:51:48;;;;;;;13.38;7.93;;;;;;;7.90;100.00;100970.84;5129096;28;20110;-72
2022/04/15 04:54:15;;;;;;;11.35;8.40;;;;;;;7.87;100.00;100974.59;5129423;28;20036;-72
2022/04/15 04:56:41;;;;;;;11.65;7.60;;;;;;;7.86;100.00;100964.97;5129464;28;20112;-72
2022/04/15 04:59:07;;;;;;;13.90;7.32;;;;;;;7.95;100.00;100979.22;5129494;27;20031;-73
2022/04/15 05:01:32;;;;;;;13.88;8.90;;;;;;;8.01;100.00;100981.31;5129061;28;20058;-73
2022/04/15 05:03:58;;;;;;;18.50;9.27;;;;;;;7.93;100.00;100981.19;5129191;28;20035;-72
2022/04/15 05:06:24;;;;;;;13.88;8.45;;;;;;;7.99;100.00;100985.94;5127914;28;20047;-72
2022/04/15 05:08:50;;;;;;;12.95;7.80;;;;;;;8.00;100.00;100990.25;5127981;28;20133;-72
2022/04/15 05:11:16;;;;;;;13.35;8.05;;;;;;;8.12;100.00;100989.16;5127778;28;20031;-72
2022/04/15 05:13:42;;;;;;;11.75;8.10;;;;;;;8.11;100.00;100995.44;5128612;28;20084;-72
2022/04/15 05:16:07;;;;;;;14.10;7.95;;;;;;;8.15;100.00;101002.16;5110373;28;20047;-72
2022/04/15 05:18:34;;;;;;;13.35;8.20;;;;;;;8.15;100.00;100999.50;5129152;28;20032;-74
2022/04/15 05:21:01;;;;;;;12.02;8.27;;;;;;;8.16;100.00;100997.69;5128530;27;20411;-75
2022/04/15 05:23:26;;;;;;;13.45;7.88;;;;;;;8.23;100.00;100997.97;5128547;28;20035;-75
2022/04/15 05:25:52;;;;;;;13.57;8.55;;;;;;;8.31;100.00;101006.91;5128741;28;20050;-74
2022/04/15 05:28:18;;;;;;;14.57;8.95;;;;;;;8.38;100.00;101008.03;5128763;27;20066;-74
2022/04/15 05:30:44;;;;;;;20.23;9.85;;;;;;;8.45;100.00;101002.16;5128806;27;20030;-74
2022/04/15 05:33:09;;;;;;;16.08;8.50;;;;;;;8.45;100.00;101000.34;5118828;28;20492;-74
2022/04/15 05:35:35;;;;;;;13.20;8.10;;;;;;;8.54;100.00;101010.13;5114680;28;20063;-74
2022/04/15 05:38:01;;;;;;;13.82;8.82;;;;;;;8.59;100.00;101012.34;5114714;28;20035;-75
2022/04/15 05:40:28;;;;;;;13.05;8.52;;;;;;;8.62;100.00;101012.09;5114583;28;20051;-75
2022/04/15 05:42:54;;;;;;;14.18;8.85;;;;;;;8.71;100.00;101011.22;5114315;28;20035;-75
2022/04/15 05:45:20;;;;;;;12.10;8.50;;;;;;;8.75;100.00;101009.97;5113317;28;20067;-75
2022/04/15 05:47:45;;;;;;;12.52;8.73;;;;;;;8.81;100.00;101016.53;5114495;28;20059;-75
2022/04/15 05:50:11;;;;;;;16.00;8.98;;;;;;;8.85;100.00;101010.75;5114487;28;20062;-75
2022/04/15 05:52:37;;;;;;;15.23;8.57;;;;;;;8.94;100.00;101011.75;5114151;28;20043;-75
2022/04/15 05:55:03;;;;;;;14.75;8.63;;;;;;;9.09;100.00;101014.75;5114434;28;20059;-75
2022/04/15 05:57:28;;;;;;;17.77;9.80;;;;;;;9.19;100.00;101019.06;5112934;28;20047;-73
2022/04/15 05:59:54;;;;;;;15.18;9.02;;;;;;;9.34;100.00;101027.41;5114234;28;20039;-74
2022/04/15 06:02:20;;;;;;;13.73;9.10;;;;;;;9.57;100.00;101032.34;5113936;28;20143;-73
2022/04/15 06:04:46;;;;;;;13.15;9.50;;;;;;;9.74;100.00;101036.88;5114399;28;20047;-73
2022/04/15 06:07:12;;;;;;;14.90;9.60;;;;;;;9.89;100.00;101038.03;5114077;28;20408;-75
2022/04/15 06:09:37;;;;;;;15.88;9.98;;;;;;;10.10;100.00;101034.25;5114292;28;20039;-73
2022/04/15 06:12:03;;;;;;;16.35;9.93;;;;;;;10.17;100.00;101032.66;5112478;28;20403;-73
2022/04/15 06:14:33;;;;;;;13.90;8.90;;;;;;;10.33;100.00;101036.34;5114142;28;20055;-73
2022/04/15 06:16:59;;;;;;;14.02;9.27;;;;;;;10.44;100.00;101031.81;5112773;28;20043;-73
2022/04/15 06:19:25;;;;;;;16.40;9.30;;;;;;;10.54;100.00;101045.84;5114044;28;20040;-74
2022/04/15 06:21:51;;;;;;;14.02;9.05;;;;;;;10.66;100.00;101043.78;5112198;28;20189;-76
2022/04/15 06:24:16;;;;;;;13.85;10.00;;;;;;;10.71;100.00;101030.84;5106835;27;20032;-77
2022/04/15 06:26:42;;;;;;;17.58;10.20;;;;;;;10.85;100.00;101038.28;5113500;28;20030;-76
2022/04/15 06:29:08;;;;;;;22.90;13.35;;;;;;;11.03;100.00;101041.75;5113624;28;20032;-76
2022/04/15 06:31:33;;;;;;;25.25;14.45;;;;;;;11.34;100.00;101050.06;5111754;28;20055;-77
2022/04/15 06:33:59;;;;;;;18.02;11.77;;;;;;;11.53;100.00;101042.81;5113126;28;20028;-76
2022/04/15 06:36:25;;;;;;;19.42;12.55;;;;;;;11.68;100.00;101052.75;5112217;28;20102;-76
2022/04/15 06:38:51;;;;;;;19.88;13.15;;;;;;;11.86;100.00;101049.16;5113477;28;20550;-77
2022/04/15 06:41:16;;;;;;;23.75;13.10;;;;;;;12.07;100.00;101054.91;5094957;28;20036;-77
2022/04/15 06:43:42;;;;;;;22.75;12.98;;;;;;;12.25;100.00;101040.56;5093694;28;20142;-75
2022/04/15 06:46:07;;;;;;;18.77;12.25;;;;;;;12.34;100.00;101050.28;5112922;28;20036;-76
2022/04/15 06:48:33;;;;;;;19.38;13.45;;;;;;;12.57;99.98;101053.13;5112994;28;20031;-77
2022/04/15 06:50:59;;;;;;;21.48;13.85;;;;;;;12.71;98.29;101053.31;5113505;28;20023;-76
2022/04/15 06:53:24;;;;;;;17.40;12.52;;;;;;;12.89;97.18;101049.59;5112433;28;20127;-76
2022/04/15 06:55:51;;;;;;;20.63;14.70;;;;;;;13.11;93.02;101048.91;5094675;28;20063;-75
2022/04/15 06:58:17;;;;;;;20.63;14.00;;;;;;;13.18;90.50;101052.56;5111932;28;20645;-77
2022/04/15 07:00:43;;;;;;;25.90;16.42;;;;;;;13.38;88.25;101054.91;5113105;28;20396;-75
2022/04/15 07:03:12;;;;;;;23.00;15.57;;;;;;;13.58;87.13;101064.19;5112270;28;20042;-74
2022/04/15 07:05:37;;;;;;;24.70;15.18;;;;;;;13.74;86.96;101065.97;5112818;28;20040;-74
2022/04/15 07:08:03;;;;;;;23.15;16.05;;;;;;;13.84;84.53;101062.06;5094750;28;20038;-74
2022/04/15 07:10:29;;;;;;;23.80;15.85;;;;;;;13.87;83.28;101060.88;5112466;28;20039;-74
2022/04/15 07:12:54;;;;;;;23.67;15.52;;;;;;;13.99;82.97;101069.38;5112131;28;20097;-73
2022/04/15 07:15:23;;;;;;;27.60;17.08;;;;;;;14.09;81.97;101065.47;5112571;28;20047;-74
2022/04/15 07:17:49;;;;;;;24.38;17.48;;;;;;;14.13;80.27;101064.09;5112909;28;20035;-74
2022/04/15 07:20:14;;;;;;;26.73;17.15;;;;;;;14.18;79.79;101066.25;5112125;28;20039;-74
2022/04/15 07:22:40;;;;;;;30.80;18.48;;;;;;;14.24;80.18;101072.75;5111749;28;20093;-74
2022/04/15 07:25:06;;;;;;;31.02;19.00;;;;;;;14.04;77.41;101062.47;5112244;28;20403;-74
2022/04/15 07:27:32;;;;;;;27.88;18.75;;;;;;;13.99;78.40;101064.00;5112424;28;20032;-75
2022/04/15 07:29:57;;;;;;;38.42;20.75;;;;;;;14.09;76.91;101068.16;5111899;28;20045;-73
2022/04/15 07:32:23;;;;;;;35.92;23.13;;;;;;;14.15;76.98;101068.44;5111550;28;20047;-74
2022/04/15 07:34:50;;;;;;;33.90;20.60;;;;;;;14.11;75.94;101067.97;5112170;28;20039;-74
2022/04/15 07:37:16;;;;;;;28.92;20.48;;;;;;;14.17;76.26;101069.94;5094079;28;20495;-75
2022/04/15 07:39:42;;;;;;;32.88;20.77;;;;;;;14.24;76.25;101078.09;5112011;28;20044;-77
2022/04/15 07:42:07;;;;;;;35.05;22.65;;;;;;;14.40;76.36;101075.31;5110304;28;20377;-75
2022/04/15 07:44:33;;;;;;;30.35;19.00;;;;;;;14.53;75.03;101069.38;5112594;28;20043;-75
2022/04/15 07:46:59;;;;;;;29.85;20.33;;;;;;;14.53;74.96;101072.06;5112340;28;20035;-74
2022/04/15 07:49:25;;;;;;;29.83;19.85;;;;;;;14.60;75.64;101070.31;5110890;28;20408;-74
2022/04/15 07:51:50;;;;;;;29.13;19.55;;;;;;;14.76;74.07;101072.88;5110968;28;20024;-74
2022/04/15 07:54:16;;;;;;;31.40;20.35;;;;;;;14.66;75.20;101075.81;5111849;28;20081;-73
2022/04/15 07:56:42;;;;;;;46.75;28.95;;;;;;;14.82;74.08;101079.38;5111643;28;20053;-74
2022/04/15 07:59:07;;;;;;;36.22;20.33;;;;;;;14.83;73.34;101081.88;5111795;28;20039;-74
2022/04/15 08:01:33;;;;;;;34.35;21.92;;;;;;;14.93;73.34;101077.13;5111372;28;20542;-73
2022/04/15 08:04:00;;;;;;;38.95;25.00;;;;;;;14.99;74.91;101077.38;5111496;28;20117;-73
2022/04/15 08:06:28;;;;;;;31.05;20.30;;;;;;;15.25;74.79;101074.28;5110594;28;20028;-74
2022/04/15 08:08:55;;;;;;;33.05;19.77;;;;;;;15.41;72.86;101083.00;5111937;28;20457;-74
2022/04/15 08:11:22;;;;;;;35.33;19.83;;;;;;;15.57;72.26;101076.59;5112010;28;20024;-74
2022/04/15 08:13:48;;;;;;;31.25;19.77;;;;;;;15.62;70.87;101079.59;5109728;28;20124;-73
2022/04/15 08:16:15;;;;;;;25.95;18.55;;;;;;;15.83;69.59;101081.50;5111911;28;20036;-74
2022/04/15 08:18:40;;;;;;;28.13;17.50;;;;;;;15.90;70.11;101084.28;5110525;28;20040;-74
2022/04/15 08:21:06;;;;;;;28.27;18.55;;;;;;;16.14;69.48;101089.34;5111322;28;20044;-74
2022/04/15 08:23:32;;;;;;;27.70;19.23;;;;;;;16.17;69.12;101101.56;5110860;28;20050;-74
2022/04/15 08:25:58;;;;;;;26.15;17.83;;;;;;;16.41;67.67;101093.16;5111962;28;20040;-74
2022/04/15 08:28:23;;;;;;;26.15;18.38;;;;;;;16.30;67.50;101085.59;5111689;28;20039;-74
2022/04/15 08:30:49;;;;;;;29.73;19.40;;;;;;;16.40;71.96;101091.47;5111597;28;20035;-74
2022/04/15 08:33:15;;;;;;;26.23;17.23;;;;;;;16.48;69.44;101094.03;5111010;28;20035;-74
2022/04/15 08:35:41;;;;;;;31.00;18.38;;;;;;;16.26;67.53;101097.75;5111330;28;20053;-74
2022/04/15 08:38:07;;;;;;;28.35;17.38;;;;;;;16.65;66.85;101099.19;5111645;28;20114;-74
2022/04/15 08:40:35;;;;;;;25.40;17.92;;;;;;;16.85;66.85;101092.16;5111239;28;20032;-74
2022/04/15 08:43:04;;;;;;;27.10;19.05;;;;;;;16.85;70.87;101097.53;5110802;28;20063;-74
2022/04/15 08:45:30;;;;;;;29.23;18.67;;;;;;;16.82;70.04;101097.91;5109957;28;20551;-76
2022/04/15 08:47:59;;;;;;;25.40;17.10;;;;;;;16.93;70.52;101092.00;5111687;28;20541;-78
2022/04/15 08:50:29;;;;;;;29.50;18.55;;;;;;;16.75;66.43;101094.34;5111184;28;20123;-75
2022/04/15 08:52:57;;;;;;;26.90;17.67;;;;;;;16.76;69.40;101101.41;5110529;28;20069;-75
2022/04/15 08:55:24;;;;;;;24.73;17.23;;;;;;;16.91;68.51;101099.47;5111323;28;20036;-77
2022/04/15 08:57:52;;;;;;;24.30;16.70;;;;;;;17.27;66.54;101098.47;5111606;28;20203;-76
2022/04/15 09:00:19;;;;;;;26.45;17.42;;;;;;;17.56;63.49;101098.25;5109679;28;20089;-77
2022/04/15 09:02:45;;;;;;;25.95;17.10;;;;;;;17.30;63.34;101098.09;5110604;28;20512;-76
2022/04/15 09:05:12;;;;;;;25.50;17.30;;;;;;;17.58;63.47;101090.81;5111317;28;20035;-76
2022/04/15 09:07:39;;;;;;;28.15;16.67;;;;;;;17.98;64.42;101106.38;5112670;28;20114;-76
2022/04/15 09:10:06;;;;;;;22.67;16.55;;;;;;;18.00;61.19;101101.63;5115250;28;20396;-77
2022/04/15 09:12:36;;;;;;;27.65;16.95;;;;;;;17.88;60.37;101091.41;5114386;28;20067;-76
2022/04/15 09:15:07;;;;;;;26.27;18.38;;;;;;;18.15;59.55;101097.75;5115075;28;20039;-77
2022/04/15 09:17:46;;;;;;;26.90;17.88;;;;;;;18.52;58.94;101100.97;5114888;28;20476;-78
2022/04/15 09:20:12;;;;;;;23.00;16.40;;;;;;;18.45;58.23;101100.09;5115151;28;20076;-76
2022/04/15 09:22:38;;;;;;;23.75;17.35;;;;;;;18.72;57.23;101098.31;5112639;28;20453;-76
2022/04/15 09:25:04;;;;;;;22.85;16.23;;;;;;;18.83;57.21;101094.16;5113828;27;20027;-76
2022/04/15 09:27:30;;;;;;;25.37;17.30;;;;;;;18.81;58.63;101093.53;5114318;28;20031;-76
2022/04/15 09:29:56;;;;;;;24.92;17.40;;;;;;;19.06;58.05;101099.97;5114418;28;20304;-74
2022/04/15 09:32:24;;;;;;;23.83;16.70;;;;;;;19.21;60.72;101097.06;5114209;28;20038;-73
2022/04/15 09:34:55;;;;;;;24.25;16.00;;;;;;;19.48;55.49;101090.56;5113600;28;20427;-76
2022/04/15 09:37:22;;;;;;;23.83;16.13;;;;;;;19.55;54.49;101092.41;5114675;28;20477;-76
2022/04/15 09:40:15;;;;;;;26.25;16.80;;;;;;;19.69;53.69;101102.19;5114761;28;20084;-73
2022/04/15 09:42:50;;;;;;;30.52;17.05;;;;;;;19.78;52.28;101099.03;5114453;28;20107;-74
2022/04/15 09:45:23;;;;;;;23.48;15.75;;;;;;;19.53;53.40;101092.63;5114516;28;20114;-76
2022/04/15 09:47:57;;;;;;;25.13;16.33;;;;;;;19.93;53.86;101101.47;5114920;28;20052;-74
2022/04/15 09:50:36;;;;;;;27.95;16.58;;;;;;;20.20;54.42;101094.06;5113251;28;20035;-74
2022/04/15 09:53:21;;;;;;;25.17;16.30;;;;;;;20.19;53.32;101086.19;5114255;28;20104;-74
2022/04/15 09:55:51;;;;;;;23.45;15.93;;;;;;;20.18;54.76;101085.34;5113079;28;20444;-74
2022/04/15 09:58:22;;;;;;;27.40;17.98;;;;;;;20.28;52.07;101087.59;5114420;28;20053;-74
2022/04/15 10:00:51;;;;;;;22.48;14.85;;;;;;;20.41;51.49;101083.97;5112745;28;20040;-74
2022/04/15 10:03:27;;;;;;;25.50;16.00;;;;;;;20.62;52.91;101089.06;5114230;28;20059;-74
2022/04/15 10:05:56;;;;;;;26.77;16.60;;;;;;;20.22;52.07;101085.75;5112891;28;20032;-74
2022/04/15 10:08:24;;;;;;;21.90;15.55;;;;;;;20.77;50.67;101086.03;5113966;28;20035;-76
2022/04/15 10:10:51;;;;;;;22.55;15.88;;;;;;;20.19;49.88;101076.19;5113149;28;20031;-76
2022/04/15 10:13:17;;;;;;;21.88;14.57;;;;;;;20.21;53.35;101078.66;5112861;28;20115;-77
2022/04/15 10:15:43;;;;;;;22.27;16.10;;;;;;;20.37;49.34;101083.59;5113785;28;20038;-75
2022/04/15 10:18:09;;;;;;;32.97;16.00;;;;;;;20.31;51.74;101084.44;5113460;28;20026;-74
2022/04/15 10:20:37;;;;;;;30.60;16.95;;;;;;;19.91;51.13;101083.81;5113452;28;20035;-75
2022/04/15 10:23:05;;;;;;;22.80;15.68;;;;;;;20.20;48.63;101077.84;5113711;28;20046;-76
2022/04/15 10:25:33;;;;;;;23.67;15.35;;;;;;;20.20;48.99;101077.84;5113858;28;20047;-75
2022/04/15 10:28:10;;;;;;;25.15;14.70;;;;;;;20.12;49.48;101072.69;5112674;28;20038;-75
2022/04/15 10:30:38;;;;;;;21.52;14.35;;;;;;;20.29;49.12;101084.69;5112587;28;20534;-75
2022/04/15 10:33:04;;;;;;;22.13;14.60;;;;;;;19.95;50.37;101076.91;5113473;28;20110;-75
2022/04/15 10:35:32;;;;;;;27.42;14.45;;;;;;;19.69;52.54;101086.81;5113960;28;21729;-75
2022/04/15 10:38:12;;;;;;;20.13;14.50;;;;;;;19.30;53.67;101087.72;5113729;28;20031;-74
2022/04/15 10:40:43;;;;;;;24.45;14.20;;;;;;;20.03;49.17;101076.69;5113486;28;20111;-74
2022/04/15 10:43:20;;;;;;;26.42;14.60;;;;;;;20.58;46.98;101077.84;5113308;28;20031;-74
2022/04/15 10:45:47;;;;;;;26.65;15.35;;;;;;;20.43;47.66;101076.47;5113478;28;20496;-75
2022/04/15 10:48:12;;;;;;;20.17;13.20;;;;;;;21.05;46.63;101081.00;5113676;28;20039;-75
2022/04/15 10:50:40;;;;;;;21.58;13.48;;;;;;;21.31;47.78;101069.13;5113465;28;20434;-75
2022/04/15 10:53:17;;;;;;;;;;;;;;;20.81;46.00;101073.75;5113693;28;20039;-75
2022/04/15 10:55:49;;;;;;;25.08;14.57;;;;;;;21.30;44.49;101072.88;5113351;28;19965;-76
2022/04/15 10:58:16;;;;;;;22.33;13.70;;;;;;;21.47;44.10;101073.13;5113062;27;20107;-75
2022/04/15 11:03:32;;;;;;;20.63;13.18;;;;;;;22.05;45.33;101071.81;5111806;28;20488;-75
2022/04/15 11:05:59;;;;;;;29.23;16.92;;;;;;;22.58;40.17;101066.50;5111304;28;20027;-75
2022/04/15 11:08:27;;;;;;;21.83;13.85;;;;;;;23.11;38.87;101062.09;5115159;28;20036;-76
2022/04/15 11:10:55;;;;;;;21.88;13.63;;;;;;;23.14;40.75;101075.19;5113261;28;20030;-76
2022/04/15 11:13:27;;;;;;;28.17;14.98;;;;;;;22.13;42.93;101068.81;5092519;28;20085;-76
2022/04/15 11:15:55;;;;;;;23.83;14.88;;;;;;;22.95;43.22;101072.59;5092521;28;20032;-76
2022/04/15 11:18:21;;;;;;;22.63;15.10;;;;;;;22.95;42.38;101060.88;5092851;28;20063;-77
2022/04/15 11:20:46;;;;;;;22.75;13.90;;;;;;;22.66;43.90;101063.44;5092299;28;20064;-76
2022/04/15 11:23:12;;;;;;;20.08;13.10;;;;;;;22.87;40.65;101070.22;5090884;28;20054;-77
2022/04/15 11:25:45;;;;;;;23.42;15.63;;;;;;;22.05;41.07;101061.81;5097157;28;20035;-76
2022/04/15 11:28:11;;;;;;;25.98;15.40;;;;;;;21.93;44.14;101060.91;5112629;28;20430;-77
2022/04/15 11:30:37;;;;;;;23.50;12.30;;;;;;;23.06;42.22;101070.13;5111839;28;20035;-76
2022/04/15 11:33:07;;;;;;;23.80;12.73;;;;;;;23.92;38.66;101063.03;5111578;27;20084;-76
2022/04/15 11:35:35;;;;;;;20.05;12.90;;;;;;;24.61;36.66;101053.75;5111881;28;20040;-76
2022/04/15 11:38:07;;;;;;;22.95;13.88;;;;;;;23.58;37.45;101054.72;5113227;28;20031;-76
2022/04/15 11:40:35;;;;;;;22.85;13.88;;;;;;;22.82;40.17;101052.94;5111363;28;20078;-77
2022/04/15 11:43:05;;;;;;;18.75;11.77;;;;;;;23.87;36.09;101052.91;5110460;28;20038;-76
2022/04/15 11:45:37;;;;;;;18.92;12.55;;;;;;;23.89;35.70;101049.94;5111647;28;20491;-75
2022/04/15 11:48:23;;;;;;;22.95;13.32;;;;;;;24.41;36.02;101044.41;5112224;28;20055;-74
2022/04/15 11:50:51;;;;;;;19.50;12.23;;;;;;;24.62;36.33;101051.84;5112021;28;20032;-75
2022/04/15 11:53:18;;;;;;;18.23;11.13;;;;;;;24.44;34.39;101046.63;5111338;28;20036;-77
2022/04/15 11:55:46;;;;;;;;;;;;;;;23.74;39.83;101045.84;5112161;28;20040;-75
2022/04/15 11:58:12;;;;;;;16.50;10.13;;;;;;;23.51;39.19;101037.69;5112204;28;20376;-78
2022/04/15 12:00:38;;;;;;;20.90;11.52;;;;;;;22.73;39.40;101037.00;5112008;28;20047;-75
2022/04/15 12:03:06;;;;;;;17.20;10.95;;;;;;;23.61;38.12;101031.66;5111268;28;20112;-75
2022/04/15 12:05:32;;;;;;;18.10;11.02;;;;;;;24.61;36.08;101034.69;5111789;28;20055;-76
2022/04/15 12:07:58;;;;;;;18.73;12.52;;;;;;;23.26;37.09;101037.97;5112061;28;20543;-76
2022/04/15 12:10:24;;;;;;;17.85;11.88;;;;;;;23.94;35.97;101036.44;5111739;28;20035;-75
2022/04/15 12:12:51;;;;;;;20.27;13.15;;;;;;;24.26;34.55;101039.50;5111289;28;20062;-75
2022/04/15 12:15:16;;;;;;;46.30;17.30;;;;;;;24.77;33.52;101034.91;5110317;28;20027;-77
2022/04/15 12:17:42;;;;;;;41.35;16.50;;;;;;;25.42;34.20;101026.91;5111711;28;20055;-77
2022/04/15 12:20:09;;;;;;;21.48;11.40;;;;;;;25.46;37.62;101031.88;5111560;28;20403;-76
2022/04/15 12:22:35;;;;;;;20.23;11.07;;;;;;;26.19;34.15;101028.63;5111089;28;20127;-77
2022/04/15 12:25:18;;;;;;;21.17;11.20;;;;;;;26.08;33.59;101029.63;5111813;28;20050;-79
2022/04/15 12:27:47;;;;;;;18.50;10.68;;;;;;;26.60;33.50;101031.75;5112680;28;20363;-76
2022/04/15 12:30:14;;;;;;;20.15;12.38;;;;;;;26.13;31.98;101026.94;5111662;28;20110;-78
2022/04/15 12:32:40;;;;;;;22.85;11.25;;;;;;;26.54;31.95;101024.63;5108265;28;20499;-73
2022/04/15 12:35:11;;;;;;;21.60;12.02;;;;;;;26.27;35.73;101021.88;5111689;28;20035;-74
2022/04/15 12:37:57;;;;;;;18.45;10.77;;;;;;;25.85;32.60;101013.53;5111570;28;20038;-74
2022/04/15 12:40:24;;;;;;;17.73;11.17;;;;;;;25.82;32.80;101016.75;5111771;28;20438;-75
2022/04/15 12:42:51;;;;;;;22.75;11.30;;;;;;;25.83;32.40;101022.00;5112246;28;20034;-73
2022/04/15 12:45:22;;;;;;;20.27;12.02;;;;;;;26.21;31.15;101017.44;5115404;28;20048;-73
2022/04/15 12:48:04;;;;;;;19.27;10.98;;;;;;;26.64;30.60;101004.75;5115586;27;20035;-76
2022/04/15 12:50:33;;;;;;;13.32;9.60;;;;;;;25.53;33.35;101011.50;5115396;28;20070;-75
2022/04/15 12:53:01;;;;;;;15.93;10.07;;;;;;;24.66;38.21;101005.88;5096832;28;20031;-76
2022/04/15 12:55:31;;;;;;;20.23;10.73;;;;;;;24.93;33.09;101006.84;5115517;28;20058;-75
2022/04/15 12:57:59;;;;;;;17.90;10.48;;;;;;;25.62;32.73;100998.22;5113914;28;20404;-75
2022/04/15 13:00:25;;;;;;;17.27;9.82;;;;;;;23.59;35.22;101010.13;5116039;27;20039;-75
2022/04/15 13:02:51;;;;;;;15.43;8.23;;;;;;;23.85;36.40;101003.34;5113966;28;20035;-75
2022/04/15 13:05:17;;;;;;;17.15;9.02;;;;;;;23.89;36.80;101001.78;5113669;28;20485;-76
2022/04/15 13:07:42;;;;;;;17.08;9.98;;;;;;;23.36;34.38;101002.88;5115080;28;20480;-76
2022/04/15 13:10:11;;;;;;;19.33;10.10;;;;;;;23.62;34.69;101006.16;5115178;28;20035;-75
2022/04/15 13:12:37;;;;;;;15.75;9.13;;;;;;;23.96;34.03;100998.91;5114294;28;20046;-75
2022/04/15 13:15:03;;;;;;;14.95;8.95;;;;;;;23.65;38.02;101000.22;5113468;28;20032;-75
2022/04/15 13:17:30;;;;;;;12.67;8.73;;;;;;;23.71;37.42;100996.53;5114258;28;20553;-76
2022/04/15 13:19:55;;;;;;;16.25;8.65;;;;;;;23.91;34.78;100988.75;5111259;28;20089;-76
2022/04/15 13:22:21;;;;;;;14.38;7.88;;;;;;;24.12;35.23;101000.00;5094321;28;20028;-75
2022/04/15 13:24:46;;;;;;;17.60;7.40;;;;;;;24.55;33.61;101000.25;5094555;28;20657;-76
2022/04/15 13:27:12;;;;;;;11.38;7.43;;;;;;;24.73;33.04;100988.28;5094463;28;20032;-75
2022/04/15 13:29:38;;;;;;;13.90;7.90;;;;;;;25.31;31.89;100994.31;5094541;28;20036;-75
2022/04/15 13:32:06;;;;;;;12.23;8.57;;;;;;;24.63;33.14;100996.28;5094177;28;20032;-76
2022/04/15 13:34:33;;;;;;;19.80;11.70;;;;;;;24.53;33.23;100998.88;5094380;28;20097;-75
2022/04/15 13:37:03;;;;;;;27.13;14.83;;;;;;;24.32;33.49;100995.78;5094217;28;20084;-74
2022/04/15 13:39:33;;;;;;;14.25;8.13;;;;;;;24.87;34.31;100994.22;5094298;28;20103;-75
2022/04/15 13:42:01;;;;;;;15.88;8.73;;;;;;;24.09;33.03;100995.91;5094000;28;20400;-75
2022/04/15 13:44:27;;;;;;;12.07;7.45;;;;;;;23.96;34.07;100999.75;5094278;28;20024;-74
2022/04/15 13:46:53;;;;;;;12.47;8.07;;;;;;;23.06;35.36;100994.03;5094094;28;20121;-74
2022/04/15 13:49:19;;;;;;;12.35;7.95;;;;;;;22.77;34.66;100982.22;5094133;28;20509;-75
2022/04/15 13:51:45;;;;;;;15.68;7.47;;;;;;;22.73;36.77;100977.25;5093753;28;20036;-75
2022/04/15 13:56:57;;;;;;;13.35;7.53;;;;;;;22.71;35.45;100978.56;5094154;28;20475;-74
2022/04/15 13:59:23;;;;;;;9.67;6.40;;;;;;;22.14;36.03;100989.09;5094036;28;20048;-75
2022/04/15 14:01:49;;;;;;;8.52;5.50;;;;;;;21.77;37.19;100977.47;5092447;28;20487;-74
2022/04/15 14:04:16;;;;;;;14.00;7.65;;;;;;;21.20;37.98;100983.16;5093918;28;20151;-74
2022/04/15 14:06:44;;;;;;;14.00;6.22;;;;;;;21.26;37.53;100987.69;5093815;28;20115;-74
2022/04/15 14:09:12;;;;;;;11.55;5.25;;;;;;;21.47;37.69;100985.59;5093753;28;20048;-75
2022/04/15 14:11:40;;;;;;;9.52;5.32;;;;;;;21.51;37.36;100979.47;5093506;28;20040;-75
2022/04/15 14:14:07;;;;;;;9.23;4.25;;;;;;;21.74;38.15;100992.31;5093656;28;20027;-75
2022/04/15 14:16:34;;;;;;;7.55;4.53;;;;;;;20.99;38.71;100981.69;5093861;28;20036;-74
2022/04/15 14:19:00;;;;;;;8.15;4.50;;;;;;;20.57;39.06;100984.19;5093689;28;20507;-76
2022/04/15 14:21:26;;;;;;;7.07;4.68;;;;;;;20.62;40.99;100986.22;5093293;28;20029;-75
2022/04/15 14:23:52;;;;;;;7.68;4.20;;;;;;;21.14;38.85;100982.19;5093472;28;20039;-74
2022/04/15 14:26:18;;;;;;;9.07;4.40;;;;;;;20.94;40.73;100984.25;5093668;28;20039;-75
2022/04/15 14:28:45;;;;;;;11.30;4.30;;;;;;;20.67;38.50;100977.41;5093677;28;20042;-75
2022/04/15 14:31:11;;;;;;;11.85;4.72;;;;;;;20.65;42.18;100974.13;5092026;28;20040;-76
2022/04/15 14:33:38;;;;;;;7.70;4.97;;;;;;;20.80;40.73;100974.59;5093016;28;20123;-75
2022/04/15 14:36:04;;;;;;;8.15;4.05;;;;;;;20.55;37.91;100969.22;5093220;28;20032;-75
2022/04/15 14:38:32;;;;;;;6.50;3.50;;;;;;;20.15;39.25;100977.63;5093300;28;20040;-74
2022/04/15 14:41:00;;;;;;;6.82;3.70;;;;;;;20.46;40.17;100981.34;5093376;28;20055;-75
2022/04/15 14:43:25;;;;;;;7.45;3.25;;;;;;;20.60;41.34;100982.88;5093154;28;20086;-75
2022/04/15 14:45:53;;;;;;;4.60;3.05;;;;;;;20.22;39.95;100974.88;5093255;28;20032;-75
2022/04/15 14:48:18;;;;;;;7.20;3.33;;;;;;;20.21;39.28;100970.47;5093252;28;20067;-74
2022/04/15 14:50:45;;;;;;;5.50;3.00;;;;;;;19.85;39.70;100981.94;5093044;28;20060;-74
2022/04/15 14:53:12;;;;;;;6.95;3.30;;;;;;;20.03;38.47;100973.94;5093005;28;20047;-74
2022/04/15 14:55:38;;;;;;;6.50;3.47;;;;;;;20.09;41.86;100970.38;5092945;28;20531;-75
2022/04/15 14:58:07;;;;;;;5.68;2.83;;;;;;;20.44;40.00;100969.91;5074876;28;20044;-75
2022/04/15 15:00:38;;;;;;;6.60;2.97;;;;;;;20.16;37.92;100960.34;5092833;28;20055;-75
2022/04/15 15:03:05;;;;;;;3.85;2.88;;;;;;;20.16;40.70;100960.34;5092623;28;20036;-74
2022/04/15 15:05:32;;;;;;;6.78;2.80;;;;;;;20.30;38.63;100955.66;5091857;28;20070;-74
2022/04/15 15:07:58;;;;;;;4.63;2.83;;;;;;;20.12;40.25;100969.09;5092760;28;20081;-75
2022/04/15 15:10:23;;;;;;;7.45;2.90;;;;;;;20.02;38.23;100969.59;5092692;28;20036;-74
2022/04/15 15:12:49;;;;;;;7.28;2.83;;;;;;;20.21;37.87;100959.66;5092338;28;20036;-75
2022/04/15 15:15:15;;;;;;;6.57;3.10;;;;;;;20.47;37.66;100964.88;5092516;28;20481;-74
2022/04/15 15:17:41;;;;;;;8.43;4.40;;;;;;;20.40;37.17;100955.97;5092411;28;20039;-75
2022/04/15 15:20:08;;;;;;;8.32;4.53;;;;;;;20.46;37.27;100965.94;5092459;28;20513;-75
2022/04/15 15:22:34;;;;;;;4.60;2.85;;;;;;;20.07;37.81;100950.81;5092197;28;20032;-74
2022/04/15 15:30:45;;;;;;;9.65;2.88;;;;;;;20.29;37.22;100954.00;5092259;28;20040;-73
2022/04/15 15:33:11;;;;;;;4.22;2.40;;;;;;;20.32;36.99;100959.78;5090765;28;20519;-74
2022/04/15 15:35:37;;;;;;;5.55;2.53;;;;;;;20.16;38.40;100954.94;5090727;28;20024;-75
2022/04/15 15:38:03;;;;;;;6.32;3.50;;;;;;;20.26;37.52;100952.53;5092306;28;20405;-75
2022/04/15 15:40:30;;;;;;;4.93;2.57;;;;;;;20.30;37.38;100958.34;5092083;28;20043;-74
2022/04/15 15:43:01;;;;;;;8.77;4.17;;;;;;;20.27;38.16;100956.06;5090372;28;20031;-75
2022/04/15 15:45:30;;;;;;;3.22;2.58;;;;;;;20.22;39.16;100954.06;5092048;28;20309;-74
2022/04/15 15:47:57;;;;;;;5.40;2.88;;;;;;;20.22;37.44;100956.75;5101590;28;20039;-74